Time;durP1;ratioP1;P1;durP2;ratioP2;P2;SDS_P1;SDS_P2;PMS_P1;PMS_P2;Temp;Humidity;BMP_temperature;BMP_pressure;BME280_temperature;BME280_humidity;BME280_pressure;Samples;Min_cycle;Max_cycle;Signal;HPM_P1;HPM_P2
2023/06/08 00:00:10;;;;;;;5.13;3.20;;;19.10;99.90;;;;;;4981207;28;20117;-64
2023/06/08 00:02:36;;;;;;;7.55;3.08;;;19.10;99.90;;;;;;5003381;28;20033;-64
2023/06/08 00:05:03;;;;;;;4.68;3.30;;;19.10;99.90;;;;;;4986389;28;20481;-64
2023/06/08 00:07:29;;;;;;;5.85;3.00;;;19.00;99.90;;;;;;4985511;28;20133;-64
2023/06/08 00:09:57;;;;;;;5.20;3.30;;;19.00;99.90;;;;;;5003242;28;20034;-64
2023/06/08 00:12:24;;;;;;;8.40;4.28;;;19.00;99.90;;;;;;5002640;28;20068;-64
2023/06/08 00:14:50;;;;;;;4.70;3.03;;;19.00;99.90;;;;;;4998065;28;20121;-64
2023/06/08 00:17:16;;;;;;;5.03;3.58;;;19.00;99.90;;;;;;4985319;28;20117;-64
2023/06/08 00:19:45;;;;;;;5.93;3.22;;;18.90;99.90;;;;;;4986403;28;20042;-64
2023/06/08 00:22:12;;;;;;;5.88;3.20;;;18.90;99.90;;;;;;4984697;28;20256;-64
2023/06/08 00:24:39;;;;;;;5.28;3.50;;;18.90;99.90;;;;;;5002040;28;20022;-64
2023/06/08 00:27:06;;;;;;;6.70;3.83;;;18.80;99.90;;;;;;4991452;28;20025;-65
2023/06/08 00:29:33;;;;;;;5.80;3.67;;;18.70;99.90;;;;;;4977753;28;20034;-65
2023/06/08 00:31:58;;;;;;;5.03;2.90;;;18.70;99.90;;;;;;5006875;28;20475;-65
2023/06/08 00:34:27;;;;;;;8.32;3.33;;;18.80;99.90;;;;;;5002136;28;20030;-65
2023/06/08 00:36:53;;;;;;;6.47;3.28;;;18.70;99.90;;;;;;5008402;28;20037;-65
2023/06/08 00:39:19;;;;;;;5.75;3.45;;;18.80;99.90;;;;;;5002454;28;20018;-65
2023/06/08 00:41:45;;;;;;;4.47;3.28;;;18.70;99.90;;;;;;4998175;28;20014;-65
2023/06/08 00:44:11;;;;;;;5.82;3.65;;;18.80;99.90;;;;;;4998630;28;20030;-64
2023/06/08 00:46:37;;;;;;;6.03;3.60;;;18.70;99.90;;;;;;4963583;28;20105;-64
2023/06/08 00:49:05;;;;;;;5.03;3.47;;;18.70;99.90;;;;;;4984665;28;20113;-64
2023/06/08 00:51:37;;;;;;;6.28;3.50;;;18.70;99.90;;;;;;4996415;28;20080;-64
2023/06/08 00:54:04;;;;;;;6.53;3.83;;;18.60;99.90;;;;;;5003630;28;20038;-64
2023/06/08 00:56:31;;;;;;;5.70;3.45;;;18.60;99.90;;;;;;4996987;28;20065;-64
2023/06/08 00:59:00;;;;;;;6.10;3.58;;;18.50;99.90;;;;;;4985408;28;20415;-64
2023/06/08 01:01:31;;;;;;;6.22;3.85;;;18.50;99.90;;;;;;5013733;28;20041;-64
2023/06/08 01:04:06;;;;;;;8.32;4.00;;;18.50;99.90;;;;;;4983163;28;20166;-65
2023/06/08 01:06:44;;;;;;;5.45;3.13;;;18.40;99.90;;;;;;4980637;28;20493;-64
2023/06/08 01:09:31;;;;;;;8.27;4.13;;;18.40;99.90;;;;;;4991172;28;20436;-65
2023/06/08 01:12:32;;;;;;;11.52;3.90;;;18.30;99.90;;;;;;4984528;28;20592;-65
2023/06/08 01:15:16;;;;;;;6.25;3.67;;;18.30;99.90;;;;;;5002784;28;20046;-64
2023/06/08 01:17:52;;;;;;;11.13;3.95;;;18.20;99.90;;;;;;5001246;28;20042;-64
2023/06/08 01:20:46;;;;;;;11.63;4.13;;;18.20;99.90;;;;;;4990760;28;20065;-65
2023/06/08 01:23:54;;;;;;;10.15;4.13;;;18.10;99.90;;;;;;5006886;28;20145;-65
2023/06/08 01:26:20;;;;;;;6.97;3.58;;;18.10;99.90;;;;;;4974086;28;20038;-65
2023/06/08 01:28:50;;;;;;;6.60;4.00;;;18.00;99.90;;;;;;4983446;28;20117;-65
2023/06/08 01:31:17;;;;;;;6.85;3.95;;;18.00;99.90;;;;;;5014233;28;20026;-65
2023/06/08 01:33:43;;;;;;;7.55;3.78;;;17.90;99.90;;;;;;5001298;28;20034;-65
2023/06/08 01:37:37;;;;;;;5.65;3.67;;;17.90;99.90;;;;;;5013986;28;20440;-65
2023/06/08 01:40:05;;;;;;;7.22;3.88;;;18.00;99.90;;;;;;4889878;29;20162;-65
2023/06/08 01:42:34;;;;;;;7.72;4.13;;;18.10;99.90;;;;;;4970449;28;20066;-65
2023/06/08 01:45:17;;;;;;;6.07;3.95;;;18.00;99.90;;;;;;4978293;28;20037;-66
2023/06/08 01:48:01;;;;;;;6.25;3.15;;;17.90;99.90;;;;;;4994627;28;20030;-65
2023/06/08 01:50:29;;;;;;;8.20;4.03;;;17.90;99.90;;;;;;5008457;28;20030;-65
2023/06/08 01:52:56;;;;;;;7.82;4.07;;;17.90;99.90;;;;;;4992450;28;20441;-65
2023/06/08 01:55:23;;;;;;;6.93;3.80;;;17.80;99.90;;;;;;4981517;28;20383;-65
2023/06/08 01:57:49;;;;;;;7.10;4.72;;;17.80;99.90;;;;;;4984444;28;20499;-65
2023/06/08 02:00:18;;;;;;;7.43;4.43;;;17.80;99.90;;;;;;4974578;28;20478;-65
2023/06/08 02:02:44;;;;;;;7.57;3.90;;;17.70;99.90;;;;;;5002778;28;20022;-65
2023/06/08 02:05:13;;;;;;;5.05;3.42;;;17.70;99.90;;;;;;4993916;28;20105;-65
2023/06/08 02:07:39;;;;;;;8.02;3.92;;;17.60;99.90;;;;;;4980651;28;20022;-65
2023/06/08 02:10:08;;;;;;;8.02;4.53;;;17.70;99.90;;;;;;5011395;28;20079;-64
2023/06/08 02:12:34;;;;;;;5.97;3.65;;;17.70;99.90;;;;;;4997196;28;20494;-65
2023/06/08 02:15:00;;;;;;;6.85;3.75;;;17.60;99.90;;;;;;4985737;28;20042;-65
2023/06/08 02:17:33;;;;;;;5.57;3.67;;;17.60;99.90;;;;;;4964365;28;20039;-65
2023/06/08 02:20:06;;;;;;;6.38;3.97;;;17.60;99.90;;;;;;4994505;28;20053;-65
2023/06/08 02:22:37;;;;;;;4.78;3.42;;;17.60;99.90;;;;;;5000237;28;20023;-65
2023/06/08 02:25:07;;;;;;;6.82;4.15;;;17.60;99.90;;;;;;4977555;28;20104;-65
2023/06/08 02:27:36;;;;;;;6.97;3.90;;;17.50;99.90;;;;;;4985143;28;20065;-66
2023/06/08 02:30:08;;;;;;;5.90;3.55;;;17.50;99.90;;;;;;4973066;28;20034;-65
2023/06/08 02:32:33;;;;;;;6.85;4.35;;;17.40;99.90;;;;;;4981511;28;20127;-66
2023/06/08 02:35:04;;;;;;;5.93;3.97;;;17.30;99.90;;;;;;4972187;28;20058;-66
2023/06/08 02:37:30;;;;;;;6.57;4.32;;;17.30;99.90;;;;;;4982479;28;20026;-66
2023/06/08 02:39:56;;;;;;;5.75;3.65;;;17.20;99.90;;;;;;4977604;28;20018;-66
2023/06/08 02:42:23;;;;;;;6.82;3.92;;;17.30;99.90;;;;;;4994612;28;20590;-66
2023/06/08 02:44:48;;;;;;;14.82;3.95;;;17.20;99.90;;;;;;5009559;28;20109;-66
2023/06/08 02:47:16;;;;;;;13.80;3.53;;;17.30;99.90;;;;;;5000992;28;20113;-66
2023/06/08 02:49:42;;;;;;;6.10;3.63;;;17.20;99.90;;;;;;4992422;28;20023;-66
2023/06/08 02:52:08;;;;;;;6.55;4.22;;;17.10;99.90;;;;;;4979311;28;20042;-66
2023/06/08 02:54:34;;;;;;;6.32;3.50;;;17.00;99.90;;;;;;4985612;28;20033;-66
2023/06/08 02:57:00;;;;;;;8.98;4.22;;;17.00;99.90;;;;;;5003329;28;20493;-66
2023/06/08 02:59:28;;;;;;;5.90;3.65;;;17.00;99.90;;;;;;5006160;28;20592;-65
2023/06/08 03:01:54;;;;;;;6.13;3.45;;;17.00;99.90;;;;;;4997923;28;20045;-65
2023/06/08 03:04:22;;;;;;;7.28;4.60;;;17.00;99.90;;;;;;4978767;28;20023;-65
2023/06/08 03:06:53;;;;;;;5.93;3.40;;;17.10;99.90;;;;;;4973131;28;20437;-65
2023/06/08 03:09:24;;;;;;;7.68;3.92;;;17.10;99.90;;;;;;4981051;28;20035;-65
2023/06/08 03:11:51;;;;;;;5.88;3.55;;;17.00;99.90;;;;;;4997627;28;20073;-65
2023/06/08 03:14:18;;;;;;;9.93;3.45;;;17.10;99.90;;;;;;5013658;23;20025;-68
2023/06/08 03:16:45;;;;;;;5.63;3.55;;;17.10;99.90;;;;;;5000945;28;20062;-68
2023/06/08 03:19:12;;;;;;;5.88;3.45;;;16.90;99.90;;;;;;4990126;28;20030;-68
2023/06/08 03:21:41;;;;;;;7.40;4.13;;;16.90;99.90;;;;;;4979181;28;20039;-68
2023/06/08 03:24:11;;;;;;;7.00;3.38;;;16.90;99.90;;;;;;4955103;28;20030;-68
2023/06/08 03:26:39;;;;;;;6.68;3.58;;;16.90;99.90;;;;;;4995897;28;20418;-67
2023/06/08 03:29:05;;;;;;;7.03;3.97;;;16.80;99.90;;;;;;5009281;28;20509;-68
2023/06/08 03:31:36;;;;;;;6.07;4.22;;;16.60;99.90;;;;;;4977574;28;20054;-69
2023/06/08 03:34:05;;;;;;;7.88;4.35;;;16.60;99.90;;;;;;5008096;28;20105;-67
2023/06/08 03:36:33;;;;;;;4.57;3.38;;;16.60;99.90;;;;;;4990350;28;20530;-68
2023/06/08 03:39:04;;;;;;;5.60;3.63;;;16.50;99.90;;;;;;4972508;28;20691;-68
2023/06/08 03:41:30;;;;;;;7.63;3.83;;;16.50;99.90;;;;;;4980754;28;20157;-68
2023/06/08 03:43:58;;;;;;;9.10;4.28;;;16.50;99.90;;;;;;5008503;28;20033;-68
2023/06/08 03:46:25;;;;;;;6.68;3.55;;;16.50;99.90;;;;;;4983882;28;20058;-66
2023/06/08 03:48:50;;;;;;;6.20;3.78;;;16.40;99.90;;;;;;5008687;28;20533;-67
2023/06/08 03:51:21;;;;;;;6.00;3.17;;;16.40;99.90;;;;;;4999609;28;20165;-67
2023/06/08 03:53:52;;;;;;;8.07;3.97;;;16.40;99.90;;;;;;5008243;28;20040;-67
2023/06/08 03:56:18;;;;;;;5.90;3.75;;;16.40;99.90;;;;;;4978260;28;20042;-67
2023/06/08 03:58:45;;;;;;;5.90;3.67;;;16.40;99.90;;;;;;5004617;28;20564;-67
2023/06/08 04:01:12;;;;;;;6.03;3.85;;;16.40;99.90;;;;;;4994921;28;20115;-67
2023/06/08 04:03:39;;;;;;;7.05;3.67;;;16.40;99.90;;;;;;5006522;28;20026;-67
2023/06/08 04:06:08;;;;;;;6.70;4.10;;;16.30;99.90;;;;;;4982075;28;20026;-67
2023/06/08 04:08:40;;;;;;;6.90;4.03;;;16.30;99.90;;;;;;4986671;28;20109;-68
2023/06/08 04:11:08;;;;;;;6.35;3.53;;;16.30;99.90;;;;;;4992777;28;20035;-69
2023/06/08 04:13:38;;;;;;;6.88;3.42;;;16.40;99.90;;;;;;4996987;28;20026;-67
2023/06/08 04:16:09;;;;;;;7.32;3.90;;;16.40;99.90;;;;;;4988365;28;20038;-67
2023/06/08 04:18:37;;;;;;;5.78;3.72;;;16.40;99.90;;;;;;4997645;28;20116;-68
2023/06/08 04:21:05;;;;;;;8.30;3.75;;;16.60;99.90;;;;;;5002154;28;20029;-68
2023/06/08 04:23:33;;;;;;;6.00;3.63;;;16.70;99.90;;;;;;5008336;28;20036;-67
2023/06/08 04:26:09;;;;;;;6.68;3.65;;;16.70;99.90;;;;;;5001163;28;20057;-68
2023/06/08 04:28:35;;;;;;;6.53;3.63;;;16.80;99.90;;;;;;4969438;28;20041;-68
2023/06/08 04:31:01;;;;;;;6.30;4.00;;;16.80;99.90;;;;;;5002086;28;20033;-67
2023/06/08 04:33:28;;;;;;;5.45;3.53;;;16.90;99.90;;;;;;4991266;28;20038;-68
2023/06/08 04:35:54;;;;;;;7.68;3.95;;;16.80;99.90;;;;;;4977938;28;20031;-67
2023/06/08 04:38:20;;;;;;;6.82;4.15;;;16.80;99.90;;;;;;4959396;28;20084;-68
2023/06/08 04:40:53;;;;;;;7.78;4.20;;;16.80;99.90;;;;;;4979757;28;20034;-68
2023/06/08 04:43:25;;;;;;;7.57;3.70;;;16.90;99.90;;;;;;4978445;28;20029;-67
2023/06/08 04:45:57;;;;;;;6.22;3.55;;;16.90;99.90;;;;;;4984795;28;20026;-68
2023/06/08 04:48:26;;;;;;;5.63;3.60;;;16.90;99.90;;;;;;4981994;28;20033;-67
2023/06/08 04:50:52;;;;;;;7.35;3.78;;;16.90;99.90;;;;;;4985515;28;20065;-67
2023/06/08 04:53:21;;;;;;;7.88;4.35;;;16.80;99.90;;;;;;4981479;28;20034;-67
2023/06/08 04:55:48;;;;;;;5.72;3.80;;;16.90;99.90;;;;;;4986026;28;20106;-68
2023/06/08 04:58:14;;;;;;;8.27;4.05;;;17.00;99.90;;;;;;4982006;28;20034;-68
2023/06/08 05:00:41;;;;;;;6.72;4.30;;;17.00;99.90;;;;;;4970471;28;20030;-68
2023/06/08 05:03:07;;;;;;;5.63;3.65;;;17.00;99.90;;;;;;4981733;28;20112;-68
2023/06/08 05:05:33;;;;;;;5.35;3.40;;;17.10;99.90;;;;;;4994500;28;20529;-68
2023/06/08 05:07:58;;;;;;;8.52;3.90;;;17.20;99.90;;;;;;4991859;28;20038;-55
2023/06/08 05:10:24;;;;;;;6.55;3.60;;;17.20;99.90;;;;;;4999218;28;20112;-54
2023/06/08 05:12:50;;;;;;;7.50;4.15;;;17.30;99.90;;;;;;4990746;28;20114;-52
2023/06/08 05:15:16;;;;;;;7.97;4.38;;;17.20;99.90;;;;;;4994296;28;20027;-55
2023/06/08 05:17:42;;;;;;;7.50;4.05;;;17.30;99.90;;;;;;4989238;28;20081;-56
2023/06/08 05:20:08;;;;;;;7.18;4.22;;;17.50;99.90;;;;;;5001951;28;20018;-57
2023/06/08 05:22:34;;;;;;;7.15;4.32;;;17.50;99.90;;;;;;4992201;28;20168;-56
2023/06/08 05:24:59;;;;;;;7.93;4.10;;;17.60;99.90;;;;;;4999899;28;20523;-55
2023/06/08 05:27:25;;;;;;;6.68;4.50;;;17.70;99.90;;;;;;5010302;28;20037;-55
2023/06/08 05:29:51;;;;;;;7.22;4.65;;;17.70;99.90;;;;;;4999996;28;20043;-54
2023/06/08 05:32:16;;;;;;;8.68;4.70;;;17.80;99.90;;;;;;5002363;28;20109;-65
2023/06/08 05:34:42;;;;;;;5.50;3.35;;;17.90;99.90;;;;;;4982077;28;20030;-70
2023/06/08 05:37:08;;;;;;;5.63;3.80;;;18.00;99.90;;;;;;5012219;28;20030;-66
2023/06/08 05:39:34;;;;;;;6.85;4.18;;;18.10;99.90;;;;;;5004303;28;20363;-65
2023/06/08 05:41:59;;;;;;;7.28;4.80;;;18.20;99.90;;;;;;5012270;28;20699;-66
2023/06/08 05:44:25;;;;;;;7.35;4.03;;;18.20;99.90;;;;;;4984450;28;20046;-66
2023/06/08 05:46:51;;;;;;;7.22;4.57;;;18.30;99.90;;;;;;4990745;28;20092;-66
2023/06/08 05:49:16;;;;;;;7.05;4.07;;;18.40;99.90;;;;;;4995186;28;20034;-65
2023/06/08 05:51:42;;;;;;;7.13;4.18;;;18.50;99.90;;;;;;4992245;28;20038;-66
2023/06/08 05:54:08;;;;;;;10.63;4.85;;;18.50;99.90;;;;;;5007257;28;20049;-66
2023/06/08 05:56:34;;;;;;;5.20;3.67;;;18.60;99.90;;;;;;5007203;28;20045;-66
2023/06/08 05:58:59;;;;;;;8.80;4.15;;;18.80;99.90;;;;;;5005225;28;20054;-66
2023/06/08 06:01:25;;;;;;;7.07;4.20;;;18.80;99.90;;;;;;4998657;28;20049;-66
2023/06/08 06:03:51;;;;;;;5.70;3.78;;;18.90;99.90;;;;;;4981559;28;20038;-67
2023/06/08 06:06:17;;;;;;;6.95;4.18;;;19.00;99.90;;;;;;4999703;28;20073;-67
2023/06/08 06:08:43;;;;;;;6.40;4.45;;;19.00;99.90;;;;;;4999471;28;20422;-67
2023/06/08 06:11:08;;;;;;;8.57;4.57;;;19.00;99.90;;;;;;4975923;28;20026;-67
2023/06/08 06:13:34;;;;;;;7.50;3.65;;;19.20;99.90;;;;;;4988335;28;20056;-67
2023/06/08 06:16:00;;;;;;;7.78;4.13;;;19.10;99.90;;;;;;4987071;28;20383;-67
2023/06/08 06:18:26;;;;;;;7.72;4.75;;;19.20;99.90;;;;;;4992554;28;20081;-67
2023/06/08 06:20:52;;;;;;;7.85;4.68;;;19.20;99.90;;;;;;5004590;28;20037;-67
2023/06/08 06:23:17;;;;;;;6.47;4.05;;;19.30;99.90;;;;;;4992353;28;20790;-67
2023/06/08 06:25:44;;;;;;;6.55;4.47;;;19.40;99.90;;;;;;5004437;28;20045;-67
2023/06/08 06:28:09;;;;;;;8.55;4.80;;;19.50;99.90;;;;;;5009230;28;20258;-53
2023/06/08 06:30:36;;;;;;;6.97;4.35;;;19.60;99.90;;;;;;4983269;28;20081;-53
2023/06/08 06:33:02;;;;;;;5.65;3.50;;;19.50;99.90;;;;;;4993509;28;20144;-54
2023/06/08 06:35:28;;;;;;;7.32;3.80;;;19.70;99.90;;;;;;4986235;28;20109;-52
2023/06/08 06:37:54;;;;;;;9.95;4.15;;;19.80;99.90;;;;;;5008604;28;20042;-52
2023/06/08 06:40:21;;;;;;;8.25;3.63;;;20.00;99.90;;;;;;5003963;28;20024;-55
2023/06/08 06:42:47;;;;;;;5.75;3.47;;;20.20;99.90;;;;;;4994781;28;20110;-51
2023/06/08 06:45:12;;;;;;;11.52;3.67;;;20.20;99.90;;;;;;4996795;28;20125;-54
2023/06/08 06:47:39;;;;;;;6.55;3.65;;;20.30;99.90;;;;;;4990232;28;20097;-51
2023/06/08 06:50:06;;;;;;;7.03;3.88;;;20.50;99.90;;;;;;5000257;28;20037;-53
2023/06/08 06:52:33;;;;;;;7.63;3.72;;;20.30;99.90;;;;;;5009004;28;20120;-51
2023/06/08 06:55:02;;;;;;;5.18;3.35;;;20.40;99.90;;;;;;5000956;28;20030;-50
2023/06/08 06:57:31;;;;;;;8.43;5.00;;;20.60;99.90;;;;;;4985193;28;20054;-69
2023/06/08 06:59:58;;;;;;;5.93;3.53;;;20.70;99.90;;;;;;5009824;28;20026;-71
2023/06/08 07:02:25;;;;;;;6.68;3.17;;;20.80;99.90;;;;;;4994251;28;20054;-70
2023/06/08 07:04:54;;;;;;;5.75;4.03;;;21.00;99.90;;;;;;4998475;28;20548;-70
2023/06/08 07:07:20;;;;;;;7.15;4.13;;;21.00;99.90;;;;;;5011644;28;20032;-70
2023/06/08 07:09:46;;;;;;;6.65;3.50;;;20.90;99.90;;;;;;5000193;28;20030;-70
2023/06/08 07:12:11;;;;;;;5.32;3.53;;;20.90;99.90;;;;;;4994548;28;20030;-70
2023/06/08 07:14:37;;;;;;;9.20;4.57;;;20.80;99.90;;;;;;4982657;28;20026;-70
2023/06/08 07:17:03;;;;;;;8.98;3.90;;;20.80;99.90;;;;;;5011293;28;20375;-70
2023/06/08 07:19:29;;;;;;;4.95;3.20;;;21.00;99.90;;;;;;5003045;28;20482;-69
2023/06/08 07:21:54;;;;;;;5.85;3.80;;;20.90;99.90;;;;;;5010081;28;20455;-69
2023/06/08 07:24:21;;;;;;;7.07;3.70;;;20.70;99.90;;;;;;5002712;28;20030;-69
2023/06/08 07:26:46;;;;;;;6.90;3.92;;;21.00;99.90;;;;;;4997783;28;20385;-70
2023/06/08 07:29:13;;;;;;;10.05;3.53;;;21.20;99.90;;;;;;4997962;28;20041;-69
2023/06/08 07:31:39;;;;;;;7.25;4.10;;;21.30;99.90;;;;;;5007881;28;20127;-69
2023/06/08 07:34:06;;;;;;;6.43;4.13;;;21.20;99.90;;;;;;5004833;28;20498;-69
2023/06/08 07:36:35;;;;;;;5.15;3.30;;;21.20;99.90;;;;;;5006676;28;20034;-69
2023/06/08 07:39:03;;;;;;;8.35;4.03;;;21.30;99.90;;;;;;5004972;28;20034;-69
2023/06/08 07:41:29;;;;;;;8.45;4.47;;;21.40;99.90;;;;;;5006247;28;20086;-69
2023/06/08 07:43:55;;;;;;;8.02;4.30;;;21.50;99.90;;;;;;4988884;28;20517;-69
2023/06/08 07:46:22;;;;;;;6.22;3.67;;;21.60;99.90;;;;;;5005018;28;20033;-70
2023/06/08 07:48:48;;;;;;;9.05;4.78;;;21.50;99.90;;;;;;5006797;28;20034;-70
2023/06/08 07:51:17;;;;;;;11.35;4.28;;;21.40;99.90;;;;;;5003916;28;20192;-70
2023/06/08 07:53:42;;;;;;;5.40;3.92;;;21.60;99.90;;;;;;5006736;28;20034;-70
2023/06/08 07:56:08;;;;;;;6.53;4.47;;;21.70;99.90;;;;;;4997291;28;20034;-70
2023/06/08 07:58:34;;;;;;;7.78;4.55;;;21.50;99.90;;;;;;4979869;28;20128;-70
2023/06/08 08:01:01;;;;;;;7.47;4.35;;;21.60;99.90;;;;;;5002780;28;20111;-70
2023/06/08 08:03:28;;;;;;;6.35;4.38;;;21.80;99.90;;;;;;5006658;28;20045;-70
2023/06/08 08:05:54;;;;;;;6.90;4.30;;;21.80;99.90;;;;;;5002854;28;20033;-70
2023/06/08 08:08:20;;;;;;;8.43;4.35;;;21.90;99.90;;;;;;4990810;28;20037;-70
2023/06/08 08:10:46;;;;;;;5.35;3.80;;;21.90;99.90;;;;;;4997190;28;20061;-70
2023/06/08 08:13:12;;;;;;;8.40;4.40;;;22.00;99.90;;;;;;4976915;28;20034;-70
2023/06/08 08:15:40;;;;;;;9.90;4.38;;;22.20;99.90;;;;;;4984874;28;20053;-69
2023/06/08 08:18:06;;;;;;;7.38;4.13;;;22.20;99.90;;;;;;5006926;28;20068;-69
2023/06/08 08:20:31;;;;;;;7.85;3.42;;;22.30;99.90;;;;;;4985167;28;20046;-69
2023/06/08 08:22:57;;;;;;;7.32;4.05;;;22.50;99.90;;;;;;4989763;28;20042;-71
2023/06/08 08:25:23;;;;;;;29.77;13.48;;;22.60;99.90;;;;;;5002389;28;20026;-70
2023/06/08 08:27:49;;;;;;;10.75;5.90;;;22.80;99.90;;;;;;4990098;28;20564;-70
2023/06/08 08:30:15;;;;;;;5.10;3.75;;;22.60;99.90;;;;;;5002459;28;20036;-70
2023/06/08 08:32:40;;;;;;;6.38;4.20;;;22.70;99.90;;;;;;5007208;28;20041;-70
2023/06/08 08:35:09;;;;;;;8.20;4.03;;;22.70;99.90;;;;;;4997579;28;20393;-70
2023/06/08 08:37:35;;;;;;;6.82;4.60;;;22.90;99.90;;;;;;4954230;28;20043;-70
2023/06/08 08:40:00;;;;;;;5.10;3.35;;;23.00;99.90;;;;;;4983770;28;20094;-70
2023/06/08 08:42:30;;;;;;;5.82;3.85;;;23.10;99.90;;;;;;4993044;28;20026;-70
2023/06/08 08:45:00;;;;;;;5.38;3.85;;;23.10;99.90;;;;;;4981465;28;20033;-70
2023/06/08 08:47:29;;;;;;;5.47;3.47;;;23.10;99.90;;;;;;4973942;28;20397;-70
2023/06/08 08:50:03;;;;;;;7.82;3.95;;;23.10;99.90;;;;;;4980994;28;20030;-70
2023/06/08 08:52:33;;;;;;;5.22;3.22;;;23.10;99.90;;;;;;4992457;28;20795;-70
2023/06/08 08:55:06;;;;;;;5.55;3.20;;;23.20;99.90;;;;;;4990251;28;20057;-71
2023/06/08 08:57:32;;;;;;;5.65;3.45;;;23.30;99.90;;;;;;4974876;28;20026;-70
2023/06/08 08:59:58;;;;;;;6.40;3.83;;;23.30;99.90;;;;;;4989785;28;20540;-71
2023/06/08 09:02:25;;;;;;;8.82;3.97;;;23.50;99.90;;;;;;5010184;28;20638;-70
2023/06/08 09:04:54;;;;;;;6.65;3.47;;;23.50;99.90;;;;;;4997808;28;20114;-70
2023/06/08 09:07:24;;;;;;;5.75;3.20;;;23.60;99.90;;;;;;4992642;28;20076;-70
2023/06/08 09:10:20;;;;;;;15.53;4.50;;;23.70;99.90;;;;;;4999114;28;20486;-70
2023/06/08 09:12:52;;;;;;;6.30;3.30;;;23.80;99.90;;;;;;4992764;28;20288;-70
2023/06/08 09:15:33;;;;;;;5.82;3.60;;;24.00;99.90;;;;;;5016925;23;20040;-68
2023/06/08 09:18:14;;;;;;;5.75;3.38;;;24.10;99.50;;;;;;4957023;28;20047;-69
2023/06/08 09:20:40;;;;;;;;;;;23.90;99.70;;;;;;4989359;28;20023;-68
2023/06/08 09:23:22;;;;;;;5.85;3.28;;;24.00;99.40;;;;;;4968376;28;19914;-69
2023/06/08 09:25:48;;;;;;;7.15;3.95;;;23.80;99.60;;;;;;4987985;28;20550;-69
2023/06/08 09:28:32;;;;;;;7.95;4.25;;;23.90;99.90;;;;;;4968489;28;20026;-69
2023/06/08 09:30:58;;;;;;;6.05;3.47;;;24.30;99.40;;;;;;4988912;28;20118;-69
2023/06/08 09:33:33;;;;;;;8.18;3.88;;;24.40;98.70;;;;;;4985330;28;20030;-69
2023/06/08 09:35:58;;;;;;;6.25;3.47;;;24.60;98.40;;;;;;4988338;28;20568;-68
2023/06/08 09:38:29;;;;;;;9.10;3.58;;;24.80;98.20;;;;;;4985633;28;20050;-69
2023/06/08 09:41:14;;;;;;;7.95;3.53;;;24.90;97.80;;;;;;4988055;28;20502;-68
2023/06/08 09:43:45;;;;;;;5.80;3.53;;;25.00;97.80;;;;;;4968192;28;20525;-69
2023/06/08 09:46:16;;;;;;;5.60;3.03;;;25.40;98.00;;;;;;4951110;28;20025;-70
2023/06/08 09:48:56;;;;;;;3.83;2.67;;;25.40;96.60;;;;;;4985519;28;20062;-69
2023/06/08 09:51:23;;;;;;;5.63;3.38;;;25.60;96.00;;;;;;4971023;28;20030;-70
2023/06/08 09:53:58;;;;;;;5.75;3.53;;;25.50;96.60;;;;;;4985091;28;20053;-69
2023/06/08 09:56:26;;;;;;;6.10;3.08;;;25.50;96.30;;;;;;4987437;28;20114;-70
2023/06/08 09:58:57;;;;;;;10.98;3.60;;;25.90;96.20;;;;;;4968302;28;20114;-70
2023/06/08 10:01:46;;;;;;;7.05;3.08;;;26.10;95.50;;;;;;4966584;28;20050;-69
2023/06/08 10:04:29;;;;;;;5.65;2.90;;;26.00;95.80;;;;;;4978633;28;20052;-70
2023/06/08 10:07:04;;;;;;;5.53;3.50;;;26.30;95.50;;;;;;4985547;28;20533;-69
2023/06/08 10:09:36;;;;;;;5.88;3.00;;;26.40;95.50;;;;;;4988493;28;20045;-69
2023/06/08 10:12:02;;;;;;;6.13;3.38;;;26.40;94.80;;;;;;4984767;28;20039;-69
2023/06/08 10:14:28;;;;;;;6.35;2.85;;;26.70;94.20;;;;;;4954637;28;20045;-69
2023/06/08 10:16:56;;;;;;;5.05;2.88;;;27.00;94.30;;;;;;4968390;28;20030;-70
2023/06/08 10:19:23;;;;;;;5.80;2.90;;;27.30;93.50;;;;;;4987294;28;20030;-69
2023/06/08 10:21:52;;;;;;;5.50;3.15;;;27.10;93.00;;;;;;4985782;28;20113;-69
2023/06/08 10:24:21;;;;;;;4.88;3.15;;;27.00;93.80;;;;;;4985652;28;20383;-69
2023/06/08 10:26:50;;;;;;;5.40;3.58;;;27.20;93.30;;;;;;4967913;28;20022;-69
2023/06/08 10:29:16;;;;;;;4.82;2.92;;;27.20;93.00;;;;;;4979495;28;20489;-69
2023/06/08 10:31:47;;;;;;;4.28;2.63;;;27.30;93.50;;;;;;4980507;28;20110;-69
2023/06/08 10:34:15;;;;;;;5.13;3.75;;;27.40;93.20;;;;;;4973334;28;20042;-69
2023/06/08 10:36:43;;;;;;;5.35;3.10;;;27.70;92.40;;;;;;4980427;28;20508;-69
2023/06/08 10:39:16;;;;;;;5.45;3.33;;;27.40;92.40;;;;;;4960387;28;20390;-69
2023/06/08 10:41:45;;;;;;;5.32;3.05;;;27.20;92.00;;;;;;4986749;28;20438;-69
2023/06/08 10:44:35;;;;;;;3.75;2.38;;;27.80;92.10;;;;;;4984922;28;20032;-70
2023/06/08 10:47:05;;;;;;;3.75;2.78;;;28.20;90.70;;;;;;4963803;28;20065;-68
2023/06/08 10:49:34;;;;;;;7.38;2.88;;;28.20;90.10;;;;;;4987735;28;20030;-68
2023/06/08 10:52:01;;;;;;;3.85;2.50;;;28.50;90.30;;;;;;4961898;28;20035;-69
2023/06/08 10:54:28;;;;;;;3.10;2.40;;;28.60;89.20;;;;;;4978242;28;20475;-69
2023/06/08 10:57:03;;;;;;;3.67;2.60;;;28.30;87.30;;;;;;4962958;28;20030;-70
2023/06/08 10:59:37;;;;;;;8.32;2.83;;;28.10;86.80;;;;;;4987492;28;20045;-70
2023/06/08 11:02:06;;;;;;;3.95;2.30;;;28.40;86.80;;;;;;4983300;28;20505;-69
2023/06/08 11:04:33;;;;;;;3.60;2.22;;;28.30;85.90;;;;;;4987238;28;20061;-69
2023/06/08 11:07:04;;;;;;;3.88;2.20;;;28.60;85.50;;;;;;4983986;28;20030;-68
2023/06/08 11:09:36;;;;;;;3.35;2.00;;;29.20;80.40;;;;;;4987352;28;20070;-68
2023/06/08 11:12:04;;;;;;;3.53;1.80;;;29.10;77.70;;;;;;4962920;28;20053;-69
2023/06/08 11:14:29;;;;;;;4.15;2.10;;;29.00;73.10;;;;;;4986908;28;20046;-69
2023/06/08 11:16:56;;;;;;;2.45;1.40;;;28.90;74.60;;;;;;4984464;28;20101;-70
2023/06/08 11:19:24;;;;;;;5.05;1.63;;;28.70;70.40;;;;;;4986086;28;20462;-69
2023/06/08 11:21:53;;;;;;;3.15;1.73;;;28.50;72.10;;;;;;4984729;28;20038;-69
2023/06/08 11:24:25;;;;;;;2.80;1.60;;;28.80;74.60;;;;;;4985165;28;20108;-68
2023/06/08 11:27:01;;;;;;;3.97;1.98;;;28.50;77.80;;;;;;4966529;28;20038;-68
2023/06/08 11:29:28;;;;;;;4.90;2.00;;;28.90;79.00;;;;;;4970045;28;20081;-69
2023/06/08 11:32:08;;;;;;;4.57;2.38;;;29.10;79.00;;;;;;4966983;28;20394;-69
2023/06/08 11:34:34;;;;;;;3.13;2.08;;;29.20;80.20;;;;;;4987070;28;20042;-69
2023/06/08 11:37:00;;;;;;;5.63;2.50;;;29.00;78.90;;;;;;4983135;28;20104;-69
2023/06/08 11:39:32;;;;;;;6.43;2.15;;;29.00;80.00;;;;;;4986104;28;20026;-69
2023/06/08 11:41:58;;;;;;;8.30;2.38;;;28.90;81.80;;;;;;4983305;28;20509;-69
2023/06/08 11:44:26;;;;;;;4.15;2.45;;;28.70;83.00;;;;;;4985718;28;20435;-69
2023/06/08 11:46:52;;;;;;;3.97;2.10;;;28.50;81.10;;;;;;4963248;28;20054;-70
2023/06/08 11:49:18;;;;;;;4.32;2.42;;;28.60;81.60;;;;;;4967802;28;20033;-70
2023/06/08 11:51:49;;;;;;;5.13;2.78;;;28.40;85.40;;;;;;4984971;28;20038;-70
2023/06/08 11:54:16;;;;;;;5.35;3.17;;;28.40;85.70;;;;;;4984386;28;20062;-69
2023/06/08 11:56:46;;;;;;;11.15;3.30;;;28.20;88.10;;;;;;4985611;28;20079;-69
2023/06/08 11:59:16;;;;;;;4.65;2.42;;;28.00;89.30;;;;;;4983974;28;20026;-69
2023/06/08 12:01:59;;;;;;;5.13;2.92;;;28.30;89.10;;;;;;4985330;28;20034;-68
2023/06/08 12:04:34;;;;;;;5.72;2.85;;;27.80;88.80;;;;;;4985257;28;20113;-70
2023/06/08 12:07:11;;;;;;;5.10;2.50;;;27.50;89.40;;;;;;4966087;28;20084;-69
2023/06/08 12:09:37;;;;;;;5.00;2.65;;;27.40;90.30;;;;;;4987223;28;20054;-69
2023/06/08 12:12:11;;;;;;;4.68;2.50;;;27.30;91.10;;;;;;4982260;28;20042;-69
2023/06/08 12:14:47;;;;;;;6.43;3.25;;;27.00;90.80;;;;;;4969430;28;20035;-69
2023/06/08 12:17:17;;;;;;;4.53;2.10;;;26.90;88.10;;;;;;4964336;28;20442;-70
2023/06/08 12:19:46;;;;;;;9.02;2.20;;;26.50;87.40;;;;;;4987801;28;20031;-70
2023/06/08 12:22:13;;;;;;;3.72;2.15;;;26.60;85.50;;;;;;4960490;28;20031;-70
2023/06/08 12:24:39;;;;;;;3.85;2.08;;;26.50;84.40;;;;;;4987110;28;20166;-69
2023/06/08 12:27:06;;;;;;;5.10;2.28;;;26.40;86.00;;;;;;4981508;28;20023;-67
2023/06/08 12:29:33;;;;;;;4.47;2.45;;;26.40;85.80;;;;;;4972657;28;20031;-69
2023/06/08 12:31:59;;;;;;;3.85;2.03;;;26.10;82.80;;;;;;4978338;28;20117;-69
2023/06/08 12:34:26;;;;;;;4.05;1.75;;;26.10;81.10;;;;;;4985086;28;20093;-69
2023/06/08 12:36:52;;;;;;;5.60;2.45;;;26.10;82.00;;;;;;4983193;28;20026;-69
2023/06/08 12:39:18;;;;;;;6.03;2.75;;;25.90;82.90;;;;;;4984407;28;20158;-68
2023/06/08 12:41:43;;;;;;;4.13;2.10;;;26.10;83.30;;;;;;4984945;28;20076;-69
2023/06/08 12:44:10;;;;;;;3.53;2.17;;;26.40;84.10;;;;;;4982556;28;20486;-69
2023/06/08 12:46:36;;;;;;;3.35;2.22;;;26.30;85.40;;;;;;4979306;28;20054;-69
2023/06/08 12:49:02;;;;;;;5.72;2.30;;;26.20;85.20;;;;;;4986952;28;20589;-69
2023/06/08 12:51:28;;;;;;;5.05;2.55;;;26.60;84.20;;;;;;4989269;28;20125;-69
2023/06/08 12:53:53;;;;;;;4.32;2.20;;;26.80;83.00;;;;;;4986294;28;20042;-69